Panamax Applause — 5BVD2 — position and weather

sailwx.info

Track history (hours):
 
Tides and Currents Weather Stations Pressure Air Temp Water Temp Dewpoint Dewpoint Depression Visibility Wind Speed Wind Dir Waves Ship Positions

Panamax Applause

Last reported at 2014-Jul-01 02:19 UTC. Time now 2014-Jul-30 23:15 UTC.
Position S 34°54' E 018°39'.
Warning: this ship's position is 29 days out of date.

Length 225 m; draft 8.4 m.

Type: Cargo ship. MMSI: 209577000.

Date/timePositionNaut miles runAvg speedWind from/ knotsBaromVisibWave heightAir tempDewpointWater temp
2014-Jul-01 02:19S 34°54' E 018°39'16 9.2
2014-Jul-01 00:33S 34°56' E 018°59'11 9.1
2014-Jun-30 23:21S 34°57' E 019°12'133 9.3
2014-Jun-30 09:05S 34°48' E 021°54'312 9.6
2014-Jun-29 00:31S 33°18' E 027°54'24711.2
2014-Jun-28 02:33S 30°09' E 030°59'8 8.4
2014-Jun-28 01:33S 30°01' E 031°04'8 8.3
2014-Jun-28 00:34S 29°53' E 031°06'4 4.1
2014-Jun-27 23:34S 29°52' E 031°02'0 0.1
2014-Jun-27 22:29S 29°53' E 031°02'0 0.0
2014-Jun-27 21:29S 29°53' E 031°02'0 0.0
2014-Jun-27 20:29S 29°53' E 031°02'0 0.0
2014-Jun-27 19:29S 29°53' E 031°02'0 0.0
2014-Jun-27 18:29S 29°53' E 031°02'0 0.0
2014-Jun-27 17:29S 29°53' E 031°02'0 0.0
2014-Jun-27 16:29S 29°53' E 031°02'0 0.0
2014-Jun-27 15:29S 29°53' E 031°02'0 0.0
2014-Jun-27 14:29S 29°53' E 031°02'0 0.0
2014-Jun-27 13:29S 29°53' E 031°02'0 0.0
2014-Jun-27 12:29S 29°53' E 031°02'0 0.0
2014-Jun-27 11:29S 29°53' E 031°02'0 0.0
2014-Jun-27 10:29S 29°53' E 031°02'0 0.0
2014-Jun-27 09:29S 29°53' E 031°02'0 0.0
2014-Jun-27 08:29S 29°53' E 031°02'1 0.8
2014-Jun-27 07:33S 29°53' E 031°03'7 7.4
2014-Jun-27 06:33S 29°48' E 031°09'4 4.4
2014-Jun-27 05:33S 29°48' E 031°14'8 8.1
2014-Jun-27 04:33S 29°47' E 031°23'7 6.6
2014-Jun-27 03:33S 29°45' E 031°31'6 6.2
2014-Jun-27 02:33S 29°44' E 031°38'85 8.3
2014-Jun-26 16:16S 29°24' E 033°13'48 6.7
2014-Jun-26 09:05S 29°14' E 034°07'  
Track history (hours):
 
Tides and Currents Weather Stations Pressure Air Temp Water Temp Dewpoint Dewpoint Depression Visibility Wind Speed Wind Dir Waves Ship Positions

Panamax Applause

Last reported at 2014-Jul-01 02:19 UTC. Time now 2014-Jul-30 23:15 UTC.
Position S 34°54' E 018°39'.
Warning: this ship's position is 29 days out of date.

Length 225 m; draft 8.4 m.

Type: Cargo ship. MMSI: 209577000.

Date/timePositionNaut miles runAvg speedWind from/ knotsBaromVisibWave heightAir tempDewpointWater temp
2014-Jul-01 02:19S 34°54' E 018°39'16 9.2
2014-Jul-01 00:33S 34°56' E 018°59'11 9.1
2014-Jun-30 23:21S 34°57' E 019°12'133 9.3
2014-Jun-30 09:05S 34°48' E 021°54'312 9.6
2014-Jun-29 00:31S 33°18' E 027°54'24711.2
2014-Jun-28 02:33S 30°09' E 030°59'8 8.4
2014-Jun-28 01:33S 30°01' E 031°04'8 8.3
2014-Jun-28 00:34S 29°53' E 031°06'4 4.1
2014-Jun-27 23:34S 29°52' E 031°02'0 0.1
2014-Jun-27 22:29S 29°53' E 031°02'0 0.0
2014-Jun-27 21:29S 29°53' E 031°02'0 0.0
2014-Jun-27 20:29S 29°53' E 031°02'0 0.0
2014-Jun-27 19:29S 29°53' E 031°02'0 0.0
2014-Jun-27 18:29S 29°53' E 031°02'0 0.0
2014-Jun-27 17:29S 29°53' E 031°02'0 0.0
2014-Jun-27 16:29S 29°53' E 031°02'0 0.0
2014-Jun-27 15:29S 29°53' E 031°02'0 0.0
2014-Jun-27 14:29S 29°53' E 031°02'0 0.0
2014-Jun-27 13:29S 29°53' E 031°02'0 0.0
2014-Jun-27 12:29S 29°53' E 031°02'0 0.0
2014-Jun-27 11:29S 29°53' E 031°02'0 0.0
2014-Jun-27 10:29S 29°53' E 031°02'0 0.0
2014-Jun-27 09:29S 29°53' E 031°02'0 0.0
2014-Jun-27 08:29S 29°53' E 031°02'1 0.8
2014-Jun-27 07:33S 29°53' E 031°03'7 7.4
2014-Jun-27 06:33S 29°48' E 031°09'4 4.4
2014-Jun-27 05:33S 29°48' E 031°14'8 8.1
2014-Jun-27 04:33S 29°47' E 031°23'7 6.6
2014-Jun-27 03:33S 29°45' E 031°31'6 6.2
2014-Jun-27 02:33S 29°44' E 031°38'85 8.3
2014-Jun-26 16:16S 29°24' E 033°13'48 6.7
2014-Jun-26 09:05S 29°14' E 034°07'  

Dump ship's entire track history